createdAt,value
2023-06-29T00:01:26.476Z,6.85
2023-06-29T00:03:54.331Z,11.65
2023-06-29T00:06:22.135Z,12.55
2023-06-29T00:08:50.350Z,7.68
2023-06-29T00:11:18.090Z,4.93
2023-06-29T00:13:45.957Z,6.18
2023-06-29T00:16:13.739Z,6.22
2023-06-29T00:18:41.541Z,7.45
2023-06-29T00:21:09.404Z,6.95
2023-06-29T00:23:37.263Z,9.68
2023-06-29T00:26:06.394Z,7.15
2023-06-29T00:28:34.334Z,9.27
2023-06-29T00:31:02.215Z,5.30
2023-06-29T00:33:31.049Z,7.85
2023-06-29T00:35:58.853Z,6.72
2023-06-29T00:38:26.644Z,6.07
2023-06-29T00:40:54.437Z,11.57
2023-06-29T00:43:22.165Z,7.10
2023-06-29T00:45:50.035Z,7.85
2023-06-29T00:48:17.918Z,7.57
2023-06-29T00:50:45.836Z,9.30
2023-06-29T00:53:16.114Z,8.90
2023-06-29T00:55:45.934Z,6.70
2023-06-29T00:58:13.849Z,6.18
2023-06-29T01:00:41.625Z,8.45
2023-06-29T01:03:12.575Z,8.32
2023-06-29T01:05:43.358Z,7.47
2023-06-29T01:08:40.044Z,7.13
2023-06-29T01:11:10.987Z,6.47
2023-06-29T01:13:41.912Z,10.70
2023-06-29T01:16:10.873Z,7.82
2023-06-29T01:18:40.823Z,5.03
2023-06-29T01:21:11.064Z,8.20
2023-06-29T01:23:40.624Z,7.15
2023-06-29T01:26:11.520Z,6.15
2023-06-29T01:28:40.113Z,10.85
2023-06-29T01:31:12.788Z,6.25
2023-06-29T01:33:40.809Z,5.28
2023-06-29T01:36:29.820Z,6.60
2023-06-29T01:39:05.040Z,7.32
2023-06-29T01:41:43.384Z,5.43
2023-06-29T01:44:17.088Z,9.80
2023-06-29T01:46:46.488Z,6.43
2023-06-29T01:49:14.704Z,6.38
2023-06-29T01:51:42.538Z,6.53
2023-06-29T01:54:10.476Z,6.55
2023-06-29T01:56:38.416Z,5.57
2023-06-29T01:59:06.253Z,6.75
2023-06-29T02:01:34.219Z,8.85
2023-06-29T02:04:01.994Z,7.97
2023-06-29T02:06:29.736Z,6.25
2023-06-29T02:08:57.593Z,7.35
2023-06-29T02:11:25.462Z,8.45
2023-06-29T02:13:53.226Z,5.45
2023-06-29T02:16:21.319Z,10.13
2023-06-29T02:18:49.072Z,6.95
2023-06-29T02:21:16.849Z,5.53
2023-06-29T02:23:44.625Z,7.50
2023-06-29T02:26:13.001Z,9.48
2023-06-29T02:28:40.845Z,7.60
2023-06-29T02:31:08.681Z,8.65
2023-06-29T02:33:36.741Z,8.68
2023-06-29T02:36:05.507Z,7.30
2023-06-29T02:38:33.285Z,7.65
2023-06-29T02:41:01.090Z,8.35
2023-06-29T02:43:28.831Z,7.53
2023-06-29T02:45:56.784Z,11.30
2023-06-29T02:48:27.805Z,9.32
2023-06-29T02:50:56.342Z,6.32
2023-06-29T02:53:24.326Z,8.38
2023-06-29T02:55:52.109Z,11.98
2023-06-29T02:58:19.936Z,9.98
2023-06-29T03:00:49.820Z,5.63
2023-06-29T03:03:17.749Z,5.55
2023-06-29T03:05:45.925Z,7.00
2023-06-29T03:08:13.849Z,7.40
2023-06-29T03:10:41.744Z,8.57
2023-06-29T03:13:09.576Z,8.13
2023-06-29T03:15:37.292Z,9.70
2023-06-29T03:18:05.110Z,10.65
2023-06-29T03:20:32.887Z,7.03
2023-06-29T03:23:00.646Z,7.63
2023-06-29T03:25:29.123Z,6.93
2023-06-29T03:27:57.332Z,6.20
2023-06-29T03:30:25.190Z,6.63
2023-06-29T03:32:54.300Z,8.77
2023-06-29T03:35:22.288Z,5.38
2023-06-29T03:37:50.011Z,8.73
2023-06-29T03:40:20.360Z,6.32
2023-06-29T03:42:48.205Z,10.02
2023-06-29T03:45:16.213Z,8.60
2023-06-29T03:47:43.996Z,6.13
2023-06-29T03:50:14.827Z,9.10
2023-06-29T03:52:45.805Z,8.63
2023-06-29T03:55:16.701Z,5.05
2023-06-29T03:57:44.529Z,6.63
2023-06-29T04:00:16.291Z,7.32
2023-06-29T04:02:46.557Z,8.57
2023-06-29T04:05:14.617Z,10.73
2023-06-29T04:07:45.193Z,6.45
2023-06-29T04:10:12.967Z,7.82
2023-06-29T04:12:40.724Z,5.22
2023-06-29T04:15:10.734Z,7.13
2023-06-29T04:17:41.801Z,9.15
2023-06-29T04:20:13.031Z,9.88
2023-06-29T04:22:40.750Z,6.70
2023-06-29T04:25:08.506Z,9.77
2023-06-29T04:27:36.442Z,6.63
2023-06-29T04:30:09.847Z,12.30
2023-06-29T04:32:38.250Z,10.85
2023-06-29T04:35:07.167Z,7.82
2023-06-29T04:37:42.259Z,6.68
2023-06-29T04:40:13.937Z,17.33
2023-06-29T04:42:50.799Z,11.07
2023-06-29T04:45:19.281Z,13.95
2023-06-29T04:47:51.152Z,8.80
2023-06-29T04:50:27.758Z,9.43
2023-06-29T04:52:56.829Z,6.55
2023-06-29T04:55:24.638Z,10.50
2023-06-29T04:57:53.255Z,9.80
2023-06-29T05:00:21.376Z,8.70
2023-06-29T05:02:51.218Z,7.53
2023-06-29T05:05:18.995Z,7.93
2023-06-29T05:07:46.770Z,5.95
2023-06-29T05:10:14.636Z,6.32
2023-06-29T05:12:42.368Z,9.55
2023-06-29T05:15:10.592Z,9.25
2023-06-29T05:17:38.859Z,5.55
2023-06-29T05:20:07.544Z,5.45
2023-06-29T05:22:35.340Z,8.50
2023-06-29T05:25:03.672Z,6.30
2023-06-29T05:27:31.416Z,8.40
2023-06-29T05:29:59.395Z,6.22
2023-06-29T05:32:27.892Z,6.03
2023-06-29T05:34:55.687Z,5.60
2023-06-29T05:37:23.885Z,8.45
2023-06-29T05:39:51.754Z,8.23
2023-06-29T05:42:19.487Z,6.30
2023-06-29T05:44:47.153Z,8.52
2023-06-29T05:47:14.964Z,8.45
2023-06-29T05:49:43.781Z,7.95
2023-06-29T05:52:11.571Z,6.40
2023-06-29T05:54:39.368Z,7.47
2023-06-29T05:57:07.264Z,9.27
2023-06-29T05:59:34.958Z,7.80
2023-06-29T06:02:03.528Z,5.32
2023-06-29T06:04:31.496Z,10.15
2023-06-29T06:06:59.700Z,9.57
2023-06-29T06:09:27.366Z,7.57
2023-06-29T06:11:56.048Z,9.27
2023-06-29T06:14:23.770Z,4.88
2023-06-29T06:16:51.550Z,5.85
2023-06-29T06:19:19.233Z,7.18
2023-06-29T06:21:47.019Z,4.95
2023-06-29T06:24:14.712Z,11.60
2023-06-29T06:26:42.391Z,8.60
2023-06-29T06:29:10.140Z,3.70
2023-06-29T06:31:37.921Z,13.50
2023-06-29T06:34:05.692Z,5.57
2023-06-29T06:36:34.141Z,13.60
2023-06-29T06:39:01.814Z,6.43
2023-06-29T06:41:29.852Z,7.68
2023-06-29T06:43:58.328Z,7.68
2023-06-29T06:46:26.366Z,6.65
2023-06-29T06:48:54.104Z,4.18
2023-06-29T06:51:22.693Z,7.82
2023-06-29T06:53:50.381Z,5.75
2023-06-29T06:56:18.418Z,5.78
2023-06-29T06:58:46.149Z,8.10
2023-06-29T07:01:14.836Z,4.53
2023-06-29T07:03:42.605Z,6.05
2023-06-29T07:06:10.393Z,8.90
2023-06-29T07:08:38.197Z,5.32
2023-06-29T07:11:07.346Z,6.30
2023-06-29T07:13:35.043Z,4.13
2023-06-29T07:16:03.029Z,5.22
2023-06-29T07:18:31.981Z,6.97
2023-06-29T07:26:02.238Z,9.13
2023-06-29T07:28:29.959Z,4.78
2023-06-29T07:30:57.806Z,4.63
2023-06-29T07:33:25.820Z,6.90
2023-06-29T07:35:53.526Z,6.35
2023-06-29T07:38:21.342Z,6.30
2023-06-29T07:40:50.203Z,4.85
2023-06-29T07:43:18.236Z,5.60
2023-06-29T07:45:46.301Z,5.22
2023-06-29T07:48:14.418Z,6.38
2023-06-29T07:50:43.171Z,5.88
2023-06-29T07:53:10.945Z,5.43
2023-06-29T07:55:38.676Z,4.35
2023-06-29T08:00:37.051Z,5.25
2023-06-29T08:03:05.692Z,6.50
2023-06-29T08:08:04.810Z,4.63
2023-06-29T08:10:32.742Z,6.03
2023-06-29T08:13:00.700Z,4.57
2023-06-29T08:15:28.476Z,2.63
2023-06-29T08:17:56.550Z,5.97
2023-06-29T08:20:24.311Z,3.33
2023-06-29T08:22:52.316Z,3.67
2023-06-29T08:25:22.384Z,8.38
2023-06-29T08:27:51.090Z,6.68
2023-06-29T08:30:19.078Z,7.75
2023-06-29T08:32:50.338Z,4.57
2023-06-29T08:35:18.183Z,6.60
2023-06-29T08:37:45.965Z,8.23
2023-06-29T08:40:13.958Z,13.25
2023-06-29T08:42:41.816Z,5.63
2023-06-29T08:45:10.910Z,5.22
2023-06-29T08:47:40.052Z,8.75
2023-06-29T08:50:11.198Z,4.03
2023-06-29T08:52:40.246Z,5.63
2023-06-29T08:55:09.004Z,4.95
2023-06-29T08:57:37.530Z,3.88
2023-06-29T09:00:06.396Z,4.47
2023-06-29T09:02:35.137Z,8.48
2023-06-29T09:05:04.808Z,7.85
2023-06-29T09:07:35.132Z,4.60
2023-06-29T09:10:05.603Z,5.97
2023-06-29T09:12:34.316Z,6.82
2023-06-29T09:15:02.385Z,4.75
2023-06-29T09:17:34.994Z,9.10
2023-06-29T09:20:08.781Z,8.40
2023-06-29T09:22:40.333Z,7.03
2023-06-29T09:27:41.186Z,10.77
2023-06-29T09:30:16.269Z,7.38
2023-06-29T09:32:44.472Z,4.82
2023-06-29T09:35:12.719Z,5.03
2023-06-29T09:37:41.605Z,6.80
2023-06-29T09:40:12.638Z,3.67
2023-06-29T09:42:42.004Z,4.78
2023-06-29T09:45:12.652Z,4.82
2023-06-29T09:50:25.494Z,5.35
2023-06-29T09:52:55.616Z,8.32
2023-06-29T09:55:31.430Z,4.97
2023-06-29T09:57:59.851Z,4.85
2023-06-29T10:00:29.026Z,6.28
2023-06-29T10:02:57.173Z,4.00
2023-06-29T10:05:25.158Z,6.60
2023-06-29T10:07:54.350Z,6.63
2023-06-29T10:10:27.243Z,5.95
2023-06-29T10:12:57.008Z,4.40
2023-06-29T10:15:27.698Z,5.57
2023-06-29T10:18:10.701Z,4.07
2023-06-29T10:20:45.289Z,3.75
2023-06-29T10:23:17.665Z,4.32
2023-06-29T10:25:51.072Z,3.92
2023-06-29T10:28:20.333Z,3.40
2023-06-29T10:30:51.951Z,3.22
2023-06-29T10:33:24.088Z,4.15
2023-06-29T10:35:56.444Z,4.88
2023-06-29T10:38:33.467Z,3.75
2023-06-29T10:41:02.436Z,6.05
2023-06-29T10:43:59.833Z,6.00
2023-06-29T10:46:50.734Z,4.75
2023-06-29T10:49:27.034Z,6.47
2023-06-29T10:52:05.515Z,7.57
2023-06-29T10:54:34.234Z,9.68
2023-06-29T10:57:08.719Z,7.28
2023-06-29T10:59:38.431Z,3.38
2023-06-29T11:02:08.050Z,3.58
2023-06-29T11:04:36.266Z,4.85
2023-06-29T11:07:10.359Z,5.13
2023-06-29T11:09:38.313Z,3.65
2023-06-29T11:12:06.636Z,3.88
2023-06-29T11:14:39.384Z,5.43
2023-06-29T11:17:09.332Z,3.13
2023-06-29T11:19:43.243Z,6.63
2023-06-29T11:22:11.001Z,4.72
2023-06-29T11:24:38.703Z,5.90
2023-06-29T11:27:07.125Z,2.97
2023-06-29T11:29:35.070Z,4.50
2023-06-29T11:32:04.051Z,2.92
2023-06-29T11:34:31.888Z,4.55
2023-06-29T11:37:14.910Z,2.78
2023-06-29T11:39:50.085Z,5.25
2023-06-29T11:42:23.077Z,4.95
2023-06-29T11:45:13.238Z,5.80
2023-06-29T11:47:43.090Z,4.55
2023-06-29T11:50:12.126Z,4.75
2023-06-29T11:52:41.948Z,3.75
2023-06-29T11:55:14.169Z,2.17
2023-06-29T11:57:44.866Z,5.25
2023-06-29T12:00:13.281Z,4.07
2023-06-29T12:02:45.298Z,5.15
2023-06-29T12:05:13.229Z,5.72
2023-06-29T12:07:42.778Z,3.53
2023-06-29T12:10:19.873Z,3.50
2023-06-29T12:12:56.673Z,6.43
2023-06-29T12:15:30.870Z,4.90
2023-06-29T12:18:13.519Z,3.60
2023-06-29T12:20:44.755Z,9.65
2023-06-29T12:23:15.570Z,2.15
2023-06-29T12:25:45.624Z,4.97
2023-06-29T12:28:14.907Z,6.07
2023-06-29T12:30:43.983Z,5.85
2023-06-29T12:33:14.229Z,4.03
2023-06-29T12:35:43.568Z,7.90
2023-06-29T12:38:12.579Z,4.00
2023-06-29T12:40:40.776Z,2.97
2023-06-29T12:43:08.494Z,2.90
2023-06-29T12:45:36.514Z,6.05
2023-06-29T12:48:05.151Z,7.78
2023-06-29T12:50:33.296Z,6.63
2023-06-29T12:53:01.309Z,6.55
2023-06-29T12:55:29.229Z,3.72
2023-06-29T12:57:56.942Z,6.05
2023-06-29T13:00:24.818Z,5.63
2023-06-29T13:02:54.274Z,5.85
2023-06-29T13:05:22.338Z,6.00
2023-06-29T13:07:50.084Z,6.32
2023-06-29T13:10:19.585Z,4.03
2023-06-29T13:12:47.401Z,3.15
2023-06-29T13:15:15.323Z,3.63
2023-06-29T13:17:44.209Z,3.63
2023-06-29T13:20:15.749Z,6.03
2023-06-29T13:22:43.821Z,5.20
2023-06-29T13:25:12.289Z,3.15
2023-06-29T13:27:41.875Z,3.53
2023-06-29T13:30:10.584Z,3.40
2023-06-29T13:32:41.072Z,4.10
2023-06-29T13:35:09.571Z,7.03
2023-06-29T13:37:37.315Z,8.57
2023-06-29T13:40:05.893Z,2.90
2023-06-29T13:42:33.620Z,4.57
2023-06-29T13:45:01.456Z,3.88
2023-06-29T13:47:29.375Z,4.85
2023-06-29T13:49:57.443Z,2.40
2023-06-29T13:52:25.172Z,3.45
2023-06-29T13:54:52.926Z,4.93
2023-06-29T13:57:26.819Z,7.50
2023-06-29T13:59:54.752Z,6.13
2023-06-29T14:02:25.825Z,3.53
2023-06-29T14:04:53.764Z,3.15
2023-06-29T14:07:26.019Z,3.65
2023-06-29T14:09:53.881Z,5.72
2023-06-29T14:12:21.838Z,5.07
2023-06-29T14:14:53.174Z,4.88
2023-06-29T14:17:24.689Z,3.05
2023-06-29T14:19:54.307Z,3.33
2023-06-29T14:22:22.132Z,6.18
2023-06-29T14:24:51.072Z,7.00
2023-06-29T14:27:20.153Z,4.10
2023-06-29T14:29:48.182Z,3.97
2023-06-29T14:32:16.024Z,4.40
2023-06-29T14:34:45.437Z,6.72
2023-06-29T14:37:13.150Z,4.68
2023-06-29T14:39:40.889Z,3.47
2023-06-29T14:42:09.447Z,8.85
2023-06-29T14:44:41.983Z,3.67
2023-06-29T14:47:10.698Z,5.25
2023-06-29T14:49:38.396Z,3.92
2023-06-29T14:52:07.229Z,5.55
2023-06-29T14:54:35.140Z,5.85
2023-06-29T14:57:03.101Z,3.33
2023-06-29T14:59:32.187Z,4.03
2023-06-29T15:02:00.012Z,4.25
2023-06-29T15:04:27.774Z,3.00
2023-06-29T15:06:55.596Z,5.70
2023-06-29T15:09:23.595Z,5.90
2023-06-29T15:11:51.518Z,3.45
2023-06-29T15:14:19.225Z,4.93
2023-06-29T15:16:47.234Z,8.25
2023-06-29T15:19:15.148Z,5.57
2023-06-29T15:21:42.959Z,6.18
2023-06-29T15:24:10.712Z,4.47
2023-06-29T15:26:38.839Z,4.10
2023-06-29T15:29:06.727Z,3.63
2023-06-29T15:31:34.732Z,7.85
2023-06-29T15:34:03.296Z,2.90
2023-06-29T15:36:32.313Z,5.32
2023-06-29T15:39:00.117Z,4.78
2023-06-29T15:41:28.012Z,5.57
2023-06-29T15:44:01.495Z,7.32
2023-06-29T15:46:30.152Z,4.53
2023-06-29T15:48:57.974Z,4.75
2023-06-29T15:51:25.890Z,5.22
2023-06-29T15:53:54.882Z,7.20
2023-06-29T15:56:22.796Z,5.07
2023-06-29T15:58:50.592Z,4.85
2023-06-29T16:01:18.309Z,6.20
2023-06-29T16:03:46.073Z,4.30
2023-06-29T16:06:13.965Z,6.97
2023-06-29T16:08:41.752Z,5.00
2023-06-29T16:11:09.569Z,5.05
2023-06-29T16:13:37.383Z,3.88
2023-06-29T16:16:05.970Z,7.50
2023-06-29T16:18:33.682Z,5.38
2023-06-29T16:21:01.640Z,5.25
2023-06-29T16:23:29.471Z,10.18
2023-06-29T16:25:57.670Z,7.25
2023-06-29T16:28:25.448Z,4.80
2023-06-29T16:30:53.293Z,5.22
2023-06-29T16:33:21.195Z,5.80
2023-06-29T16:35:49.020Z,4.57
2023-06-29T16:38:16.862Z,4.95
2023-06-29T16:40:45.753Z,6.10
2023-06-29T16:43:14.985Z,5.03
2023-06-29T16:45:43.160Z,4.45
2023-06-29T16:48:11.117Z,5.38
2023-06-29T16:50:38.954Z,6.10
2023-06-29T16:53:06.638Z,7.47
2023-06-29T16:55:34.479Z,3.50
2023-06-29T16:58:03.848Z,4.47
2023-06-29T17:00:31.645Z,5.68
2023-06-29T17:02:59.493Z,5.03
2023-06-29T17:05:28.168Z,5.32
2023-06-29T17:07:57.186Z,5.00
2023-06-29T17:10:25.491Z,6.13
2023-06-29T17:12:53.608Z,3.85
2023-06-29T17:15:21.390Z,5.72
2023-06-29T17:17:49.305Z,7.53
2023-06-29T17:20:17.340Z,5.22
2023-06-29T17:22:46.253Z,6.50
2023-06-29T17:25:14.184Z,7.18
2023-06-29T17:27:41.882Z,4.15
2023-06-29T17:30:10.628Z,5.18
2023-06-29T17:32:38.389Z,5.82
2023-06-29T17:35:06.977Z,8.20
2023-06-29T17:37:34.737Z,4.60
2023-06-29T17:40:02.513Z,5.47
2023-06-29T17:42:30.345Z,4.88
2023-06-29T17:44:58.125Z,5.30
2023-06-29T17:47:25.960Z,6.13
2023-06-29T17:49:53.853Z,5.55
2023-06-29T17:52:21.594Z,4.93
2023-06-29T17:54:49.689Z,7.22
2023-06-29T17:57:18.043Z,4.22
2023-06-29T17:59:45.908Z,6.43
2023-06-29T18:02:13.881Z,5.03
2023-06-29T18:04:42.031Z,5.75
2023-06-29T18:07:10.804Z,4.22
2023-06-29T18:09:38.664Z,4.28
2023-06-29T18:12:07.265Z,8.23
2023-06-29T18:14:35.106Z,6.40
2023-06-29T18:17:04.580Z,8.32
2023-06-29T18:19:32.375Z,7.13
2023-06-29T18:22:00.076Z,5.40
2023-06-29T18:24:27.964Z,5.35
2023-06-29T18:26:55.905Z,8.00
2023-06-29T18:29:23.785Z,6.47
2023-06-29T18:31:51.491Z,4.70
2023-06-29T18:34:19.286Z,6.63
2023-06-29T18:36:46.986Z,5.18
2023-06-29T18:39:16.013Z,7.45
2023-06-29T18:41:43.810Z,5.28
2023-06-29T18:44:13.845Z,4.93
2023-06-29T18:47:09.146Z,6.93
2023-06-29T18:49:50.493Z,5.43
2023-06-29T18:52:20.418Z,4.63
2023-06-29T18:54:48.647Z,7.63
2023-06-29T18:57:16.600Z,6.32
2023-06-29T18:59:44.737Z,6.55
2023-06-29T19:02:12.698Z,5.22
2023-06-29T19:04:40.988Z,5.88
2023-06-29T19:07:10.415Z,5.78
2023-06-29T19:09:38.592Z,7.60
2023-06-29T19:12:06.733Z,7.20
2023-06-29T19:14:34.687Z,8.02
2023-06-29T19:17:02.571Z,5.60
2023-06-29T19:19:30.336Z,6.65
2023-06-29T19:21:58.176Z,6.72
2023-06-29T19:24:26.340Z,5.80
2023-06-29T19:26:54.220Z,7.68
2023-06-29T19:29:22.052Z,7.18
2023-06-29T19:31:49.797Z,7.03
2023-06-29T19:34:17.580Z,6.80
2023-06-29T19:36:45.379Z,10.90
2023-06-29T19:39:13.149Z,6.82
2023-06-29T19:41:40.910Z,4.82
2023-06-29T19:44:08.924Z,11.27
2023-06-29T19:46:36.740Z,46.55
2023-06-29T19:49:04.515Z,12.73
2023-06-29T19:51:37.177Z,13.48
2023-06-29T19:54:04.865Z,7.60
2023-06-29T19:56:34.176Z,8.50
2023-06-29T19:59:03.020Z,11.98
2023-06-29T20:01:30.964Z,5.85
2023-06-29T20:03:59.174Z,8.57
2023-06-29T20:06:27.146Z,6.57
2023-06-29T20:08:55.788Z,7.28
2023-06-29T20:11:24.053Z,7.55
2023-06-29T20:13:51.972Z,9.43
2023-06-29T20:16:20.744Z,9.90
2023-06-29T20:18:49.744Z,8.88
2023-06-29T20:21:18.806Z,9.85
2023-06-29T20:23:51.844Z,9.90
2023-06-29T20:26:20.412Z,7.63
2023-06-29T20:28:48.146Z,10.52
2023-06-29T20:31:15.976Z,11.23
2023-06-29T20:33:44.038Z,10.45
2023-06-29T20:36:14.031Z,12.52
2023-06-29T20:38:43.354Z,11.25
2023-06-29T20:41:12.579Z,11.38
2023-06-29T20:43:47.306Z,7.18
2023-06-29T20:46:19.444Z,8.13
2023-06-29T20:48:47.606Z,9.70
2023-06-29T20:51:18.290Z,10.13
2023-06-29T20:53:46.418Z,11.82
2023-06-29T20:56:14.275Z,12.43
2023-06-29T20:58:42.094Z,9.02
2023-06-29T21:01:09.956Z,11.27
2023-06-29T21:03:39.307Z,8.82
2023-06-29T21:06:07.222Z,9.63
2023-06-29T21:08:35.365Z,9.05
2023-06-29T21:11:03.873Z,9.65
2023-06-29T21:13:31.835Z,13.48
2023-06-29T21:15:59.809Z,12.23
2023-06-29T21:18:28.099Z,13.75
2023-06-29T21:20:56.495Z,10.77
2023-06-29T21:23:24.364Z,11.90
2023-06-29T21:25:52.388Z,12.38
2023-06-29T21:28:21.436Z,11.85
2023-06-29T21:30:49.520Z,10.30
2023-06-29T21:33:17.702Z,10.98
2023-06-29T21:35:46.014Z,9.88
2023-06-29T21:38:14.221Z,10.75
2023-06-29T21:40:42.071Z,11.02
2023-06-29T21:43:09.914Z,9.15
2023-06-29T21:45:37.996Z,12.98
2023-06-29T21:48:07.822Z,10.00
2023-06-29T21:50:35.919Z,10.27
2023-06-29T21:53:03.738Z,11.15
2023-06-29T21:55:31.893Z,8.05
2023-06-29T21:57:59.634Z,8.07
2023-06-29T22:00:27.467Z,9.60
2023-06-29T22:02:56.735Z,8.38
2023-06-29T22:05:25.274Z,7.50
2023-06-29T22:07:53.226Z,12.43
2023-06-29T22:10:21.193Z,10.73
2023-06-29T22:12:49.304Z,14.35
2023-06-29T22:15:17.367Z,11.38
2023-06-29T22:17:49.209Z,9.90
2023-06-29T22:20:24.079Z,17.55
2023-06-29T22:22:51.994Z,8.73
2023-06-29T22:25:19.714Z,13.40
2023-06-29T22:27:48.451Z,20.58
2023-06-29T22:30:16.215Z,11.93
2023-06-29T22:32:51.835Z,12.50
2023-06-29T22:35:20.713Z,12.93
2023-06-29T22:37:48.565Z,12.55
2023-06-29T22:40:16.517Z,11.80
2023-06-29T22:42:44.288Z,11.35
2023-06-29T22:45:13.083Z,11.35
2023-06-29T22:47:41.134Z,14.30
2023-06-29T22:50:09.482Z,16.15
2023-06-29T22:52:37.255Z,17.48
2023-06-29T22:55:05.456Z,17.55
2023-06-29T22:57:33.193Z,17.17
2023-06-29T23:00:00.963Z,16.15
2023-06-29T23:02:28.805Z,15.77
2023-06-29T23:04:56.817Z,16.85
2023-06-29T23:07:28.292Z,20.52
2023-06-29T23:09:56.371Z,23.42
2023-06-29T23:12:27.254Z,19.88
2023-06-29T23:14:56.044Z,21.33
2023-06-29T23:17:24.490Z,25.90
2023-06-29T23:19:52.800Z,25.40
2023-06-29T23:22:22.111Z,23.48
2023-06-29T23:24:53.921Z,20.83
2023-06-29T23:27:22.004Z,23.27
2023-06-29T23:29:50.905Z,20.95
2023-06-29T23:32:18.754Z,22.88
2023-06-29T23:34:46.608Z,24.85
2023-06-29T23:37:14.330Z,23.90
2023-06-29T23:39:42.337Z,24.88
2023-06-29T23:42:10.195Z,26.60
2023-06-29T23:44:41.778Z,24.17
2023-06-29T23:47:11.158Z,24.45
2023-06-29T23:49:39.790Z,22.25
2023-06-29T23:52:10.848Z,22.05
2023-06-29T23:54:39.048Z,24.77
2023-06-29T23:57:07.553Z,25.35
2023-06-29T23:59:35.489Z,25.42
